sensor_id;sensor_type;location;lat;lon;timestamp;pressure;altitude;pressure_sealevel;temperature;humidity
6020;BME280;3038;51.122;6.840;2023-11-18T00:01:49;102103.72;;;4.47;100.00
6020;BME280;3038;51.122;6.840;2023-11-18T00:04:14;102111.25;;;4.53;100.00
6020;BME280;3038;51.122;6.840;2023-11-18T00:06:43;102114.41;;;4.60;100.00
6020;BME280;3038;51.122;6.840;2023-11-18T00:09:11;102125.41;;;4.67;100.00
6020;BME280;3038;51.122;6.840;2023-11-18T00:11:42;102111.06;;;4.72;100.00
6020;BME280;3038;51.122;6.840;2023-11-18T00:14:08;102109.25;;;4.73;100.00
6020;BME280;3038;51.122;6.840;2023-11-18T00:16:35;102111.72;;;4.76;100.00
6020;BME280;3038;51.122;6.840;2023-11-18T00:19:02;102114.00;;;4.82;100.00
6020;BME280;3038;51.122;6.840;2023-11-18T00:21:29;102113.84;;;4.85;100.00
6020;BME280;3038;51.122;6.840;2023-11-18T00:23:55;102117.22;;;4.87;100.00
6020;BME280;3038;51.122;6.840;2023-11-18T00:26:21;102113.63;;;4.88;100.00
6020;BME280;3038;51.122;6.840;2023-11-18T00:28:46;102118.16;;;4.86;100.00
6020;BME280;3038;51.122;6.840;2023-11-18T00:31:13;102111.78;;;4.90;100.00
6020;BME280;3038;51.122;6.840;2023-11-18T00:33:39;102106.53;;;4.90;100.00
6020;BME280;3038;51.122;6.840;2023-11-18T00:36:04;102105.47;;;4.93;100.00
6020;BME280;3038;51.122;6.840;2023-11-18T00:38:30;102100.91;;;4.96;100.00
6020;BME280;3038;51.122;6.840;2023-11-18T00:40:55;102088.50;;;4.98;100.00
6020;BME280;3038;51.122;6.840;2023-11-18T00:43:21;102090.00;;;5.02;100.00
6020;BME280;3038;51.122;6.840;2023-11-18T00:45:47;102093.22;;;5.07;100.00
6020;BME280;3038;51.122;6.840;2023-11-18T00:48:13;102086.25;;;5.06;100.00
6020;BME280;3038;51.122;6.840;2023-11-18T00:50:40;102085.31;;;5.07;100.00
6020;BME280;3038;51.122;6.840;2023-11-18T00:53:05;102085.31;;;5.07;100.00
6020;BME280;3038;51.122;6.840;2023-11-18T00:55:30;102080.81;;;5.09;100.00
6020;BME280;3038;51.122;6.840;2023-11-18T00:57:57;102081.94;;;5.05;100.00
6020;BME280;3038;51.122;6.840;2023-11-18T01:00:23;102081.34;;;5.00;100.00
6020;BME280;3038;51.122;6.840;2023-11-18T01:02:51;102083.06;;;5.01;100.00
6020;BME280;3038;51.122;6.840;2023-11-18T01:05:18;102082.09;;;5.02;100.00
6020;BME280;3038;51.122;6.840;2023-11-18T01:07:44;102086.63;;;5.00;100.00
6020;BME280;3038;51.122;6.840;2023-11-18T01:10:09;102086.63;;;5.00;100.00
6020;BME280;3038;51.122;6.840;2023-11-18T01:12:37;102075.94;;;5.03;100.00
6020;BME280;3038;51.122;6.840;2023-11-18T01:15:03;102080.16;;;5.06;100.00
6020;BME280;3038;51.122;6.840;2023-11-18T01:17:30;102086.47;;;5.03;100.00
6020;BME280;3038;51.122;6.840;2023-11-18T01:19:56;102087.47;;;5.01;100.00
6020;BME280;3038;51.122;6.840;2023-11-18T01:22:24;102088.69;;;4.95;100.00
6020;BME280;3038;51.122;6.840;2023-11-18T01:24:52;102089.97;;;4.88;100.00
6020;BME280;3038;51.122;6.840;2023-11-18T01:27:17;102103.47;;;4.82;100.00
6020;BME280;3038;51.122;6.840;2023-11-18T01:29:47;102103.69;;;4.79;100.00
6020;BME280;3038;51.122;6.840;2023-11-18T01:32:13;102112.16;;;4.84;100.00
6020;BME280;3038;51.122;6.840;2023-11-18T01:34:41;102118.16;;;4.86;100.00
6020;BME280;3038;51.122;6.840;2023-11-18T01:37:08;102123.59;;;4.83;100.00
6020;BME280;3038;51.122;6.840;2023-11-18T01:39:34;102121.72;;;4.85;100.00
6020;BME280;3038;51.122;6.840;2023-11-18T01:42:01;102116.22;;;4.89;100.00
6020;BME280;3038;51.122;6.840;2023-11-18T01:44:28;102118.75;;;4.91;100.00
6020;BME280;3038;51.122;6.840;2023-11-18T01:46:55;102117.91;;;4.90;100.00
6020;BME280;3038;51.122;6.840;2023-11-18T01:49:21;102117.91;;;4.90;100.00
6020;BME280;3038;51.122;6.840;2023-11-18T01:51:47;102129.25;;;4.91;100.00
6020;BME280;3038;51.122;6.840;2023-11-18T01:54:13;102113.63;;;4.88;100.00
6020;BME280;3038;51.122;6.840;2023-11-18T01:56:46;102112.63;;;4.90;100.00
6020;BME280;3038;51.122;6.840;2023-11-18T01:59:12;102105.41;;;4.94;100.00
6020;BME280;3038;51.122;6.840;2023-11-18T02:01:53;102101.06;;;4.93;100.00
6020;BME280;3038;51.122;6.840;2023-11-18T02:04:19;102110.69;;;4.94;100.00
6020;BME280;3038;51.122;6.840;2023-11-18T02:06:47;102110.94;;;4.89;100.00
6020;BME280;3038;51.122;6.840;2023-11-18T02:09:15;102114.69;;;4.85;100.00
6020;BME280;3038;51.122;6.840;2023-11-18T02:12:11;102114.53;;;4.88;100.00
6020;BME280;3038;51.122;6.840;2023-11-18T02:14:43;102106.69;;;4.87;100.00
6020;BME280;3038;51.122;6.840;2023-11-18T02:17:09;102108.38;;;4.88;100.00
6020;BME280;3038;51.122;6.840;2023-11-18T02:19:38;102094.56;;;4.84;100.00
6020;BME280;3038;51.122;6.840;2023-11-18T02:22:04;102099.91;;;4.83;100.00
6020;BME280;3038;51.122;6.840;2023-11-18T02:24:32;102108.00;;;4.80;100.00
6020;BME280;3038;51.122;6.840;2023-11-18T02:27:01;102105.53;;;4.77;100.00
6020;BME280;3038;51.122;6.840;2023-11-18T02:29:29;102102.72;;;4.80;100.00
6020;BME280;3038;51.122;6.840;2023-11-18T02:35:54;102103.69;;;4.79;100.00
6020;BME280;3038;51.122;6.840;2023-11-18T02:38:01;102103.84;;;4.76;100.00
6020;BME280;3038;51.122;6.840;2023-11-18T02:40:36;102103.94;;;4.74;100.00
6020;BME280;3038;51.122;6.840;2023-11-18T02:43:04;102096.13;;;4.73;100.00
6020;BME280;3038;51.122;6.840;2023-11-18T02:45:35;102087.38;;;4.72;100.00
6020;BME280;3038;51.122;6.840;2023-11-18T02:48:02;102086.69;;;4.69;100.00
6020;BME280;3038;51.122;6.840;2023-11-18T02:50:27;102090.28;;;4.68;100.00
6020;BME280;3038;51.122;6.840;2023-11-18T02:52:53;102078.75;;;4.70;100.00
6020;BME280;3038;51.122;6.840;2023-11-18T02:55:19;102087.38;;;4.72;100.00
6020;BME280;3038;51.122;6.840;2023-11-18T02:57:47;102084.66;;;4.74;100.00
6020;BME280;3038;51.122;6.840;2023-11-18T03:00:13;102089.91;;;4.74;100.00
6020;BME280;3038;51.122;6.840;2023-11-18T03:02:44;102103.84;;;4.76;100.00
6020;BME280;3038;51.122;6.840;2023-11-18T03:05:11;102104.00;;;4.73;100.00
6020;BME280;3038;51.122;6.840;2023-11-18T03:07:44;102105.78;;;4.72;100.00
6020;BME280;3038;51.122;6.840;2023-11-18T03:10:12;102123.47;;;4.70;100.00
6020;BME280;3038;51.122;6.840;2023-11-18T03:12:49;102113.78;;;4.71;100.00
6020;BME280;3038;51.122;6.840;2023-11-18T03:15:15;102096.22;;;4.71;100.00
6020;BME280;3038;51.122;6.840;2023-11-18T03:17:44;102091.78;;;4.72;100.00
6020;BME280;3038;51.122;6.840;2023-11-18T03:20:14;102084.00;;;4.70;100.00
6020;BME280;3038;51.122;6.840;2023-11-18T03:22:40;102089.25;;;4.70;100.00
6020;BME280;3038;51.122;6.840;2023-11-18T03:25:06;102086.13;;;4.63;100.00
6020;BME280;3038;51.122;6.840;2023-11-18T03:27:33;102074.00;;;4.61;100.00
6020;BME280;3038;51.122;6.840;2023-11-18T03:30:00;102067.78;;;4.62;100.00
6020;BME280;3038;51.122;6.840;2023-11-18T03:32:26;102063.38;;;4.62;100.00
6020;BME280;3038;51.122;6.840;2023-11-18T03:34:51;102064.31;;;4.61;100.00
6020;BME280;3038;51.122;6.840;2023-11-18T03:37:17;102060.06;;;4.59;100.00
6020;BME280;3038;51.122;6.840;2023-11-18T03:39:45;102053.13;;;4.58;100.00
6020;BME280;3038;51.122;6.840;2023-11-18T03:42:10;102054.91;;;4.57;100.00
6020;BME280;3038;51.122;6.840;2023-11-18T03:44:41;102051.53;;;4.55;100.00
6020;BME280;3038;51.122;6.840;2023-11-18T03:47:06;102053.22;;;4.56;100.00
6020;BME280;3038;51.122;6.840;2023-11-18T03:49:32;102061.22;;;4.55;100.00
6020;BME280;3038;51.122;6.840;2023-11-18T03:51:57;102068.41;;;4.51;100.00
6020;BME280;3038;51.122;6.840;2023-11-18T03:54:23;102075.53;;;4.49;100.00
6020;BME280;3038;51.122;6.840;2023-11-18T03:56:48;102079.78;;;4.52;100.00
6020;BME280;3038;51.122;6.840;2023-11-18T03:59:13;102092.69;;;4.56;100.00
6020;BME280;3038;51.122;6.840;2023-11-18T04:01:39;102094.38;;;4.57;100.00
6020;BME280;3038;51.122;6.840;2023-11-18T04:04:06;102090.63;;;4.61;100.00
6020;BME280;3038;51.122;6.840;2023-11-18T04:06:31;102083.47;;;4.63;100.00
6020;BME280;3038;51.122;6.840;2023-11-18T04:08:56;102082.63;;;4.63;100.00
6020;BME280;3038;51.122;6.840;2023-11-18T04:11:22;102082.63;;;4.63;100.00
6020;BME280;3038;51.122;6.840;2023-11-18T04:13:47;102072.13;;;4.63;100.00
6020;BME280;3038;51.122;6.840;2023-11-18T04:16:13;102072.97;;;4.63;100.00
6020;BME280;3038;51.122;6.840;2023-11-18T04:18:43;102072.13;;;4.63;100.00
6020;BME280;3038;51.122;6.840;2023-11-18T04:21:09;102066.13;;;4.61;100.00
6020;BME280;3038;51.122;6.840;2023-11-18T04:23:38;102064.50;;;4.58;100.00
6020;BME280;3038;51.122;6.840;2023-11-18T04:26:05;102050.59;;;4.56;100.00
6020;BME280;3038;51.122;6.840;2023-11-18T04:28:31;102043.81;;;4.52;100.00
6020;BME280;3038;51.122;6.840;2023-11-18T04:30:59;102044.84;;;4.50;100.00
6020;BME280;3038;51.122;6.840;2023-11-18T04:33:25;102043.31;;;4.46;100.00
6020;BME280;3038;51.122;6.840;2023-11-18T04:35:51;102035.34;;;4.47;100.00
6020;BME280;3038;51.122;6.840;2023-11-18T04:38:19;102029.13;;;4.48;100.00
6020;BME280;3038;51.122;6.840;2023-11-18T04:40:47;102028.19;;;4.49;100.00
6020;BME280;3038;51.122;6.840;2023-11-18T04:43:12;102022.09;;;4.49;100.00
6020;BME280;3038;51.122;6.840;2023-11-18T04:45:38;102019.41;;;4.50;100.00
6020;BME280;3038;51.122;6.840;2023-11-18T04:48:04;102016.84;;;4.49;100.00
6020;BME280;3038;51.122;6.840;2023-11-18T04:50:30;102007.94;;;4.51;100.00
6020;BME280;3038;51.122;6.840;2023-11-18T04:52:57;102000.03;;;4.51;100.00
6020;BME280;3038;51.122;6.840;2023-11-18T04:55:24;102001.47;;;4.57;100.00
6020;BME280;3038;51.122;6.840;2023-11-18T04:57:52;101999.94;;;4.53;100.00
6020;BME280;3038;51.122;6.840;2023-11-18T05:00:18;101998.16;;;4.53;100.00
6020;BME280;3038;51.122;6.840;2023-11-18T05:02:47;101999.00;;;4.54;100.00
6020;BME280;3038;51.122;6.840;2023-11-18T05:05:13;102000.03;;;4.51;100.00
6020;BME280;3038;51.122;6.840;2023-11-18T05:07:40;102005.56;;;4.47;100.00
6020;BME280;3038;51.122;6.840;2023-11-18T05:10:06;101995.31;;;4.42;100.00
6020;BME280;3038;51.122;6.840;2023-11-18T05:12:33;101987.53;;;4.41;100.00
6020;BME280;3038;51.122;6.840;2023-11-18T05:14:59;101981.41;;;4.40;100.00
6020;BME280;3038;51.122;6.840;2023-11-18T05:17:26;101971.56;;;4.44;100.00
6020;BME280;3038;51.122;6.840;2023-11-18T05:19:52;101971.47;;;4.45;100.00
6020;BME280;3038;51.122;6.840;2023-11-18T05:22:19;101953.06;;;4.45;100.00
6020;BME280;3038;51.122;6.840;2023-11-18T05:24:44;101965.28;;;4.46;100.00
6020;BME280;3038;51.122;6.840;2023-11-18T05:27:09;101949.50;;;4.46;100.00
6020;BME280;3038;51.122;6.840;2023-11-18T05:29:34;101954.56;;;4.49;100.00
6020;BME280;3038;51.122;6.840;2023-11-18T05:32:00;101949.13;;;4.52;100.00
6020;BME280;3038;51.122;6.840;2023-11-18T05:34:25;101954.03;;;4.58;100.00
6020;BME280;3038;51.122;6.840;2023-11-18T05:36:51;101948.50;;;4.63;100.00
6020;BME280;3038;51.122;6.840;2023-11-18T05:39:20;101958.75;;;4.68;100.00
6020;BME280;3038;51.122;6.840;2023-11-18T05:41:49;101954.16;;;4.71;100.00
6020;BME280;3038;51.122;6.840;2023-11-18T05:44:16;101954.06;;;4.73;100.00
6020;BME280;3038;51.122;6.840;2023-11-18T05:46:48;101951.16;;;4.77;100.00
6020;BME280;3038;51.122;6.840;2023-11-18T05:49:17;101942.88;;;4.83;100.00
6020;BME280;3038;51.122;6.840;2023-11-18T05:51:43;101942.59;;;4.88;100.00
6020;BME280;3038;51.122;6.840;2023-11-18T05:54:09;101949.31;;;4.94;100.00
6020;BME280;3038;51.122;6.840;2023-11-18T05:56:34;101942.03;;;4.97;100.00
6020;BME280;3038;51.122;6.840;2023-11-18T05:59:00;101942.81;;;4.99;100.00
6020;BME280;3038;51.122;6.840;2023-11-18T06:01:29;101941.75;;;5.02;100.00
6020;BME280;3038;51.122;6.840;2023-11-18T06:03:55;101942.59;;;5.02;100.00
6020;BME280;3038;51.122;6.840;2023-11-18T06:06:22;101938.84;;;5.06;100.00
6020;BME280;3038;51.122;6.840;2023-11-18T06:08:47;101938.69;;;5.09;100.00
6020;BME280;3038;51.122;6.840;2023-11-18T06:11:16;101940.38;;;5.10;100.00
6020;BME280;3038;51.122;6.840;2023-11-18T06:13:47;101949.00;;;5.12;100.00
6020;BME280;3038;51.122;6.840;2023-11-18T06:16:14;101927.88;;;5.14;100.00
6020;BME280;3038;51.122;6.840;2023-11-18T06:18:44;101923.53;;;5.13;100.00
6020;BME280;3038;51.122;6.840;2023-11-18T06:21:22;101925.22;;;5.14;100.00
6020;BME280;3038;51.122;6.840;2023-11-18T06:23:56;101922.50;;;5.15;100.00
6020;BME280;3038;51.122;6.840;2023-11-18T06:26:21;101913.66;;;5.16;100.00
6020;BME280;3038;51.122;6.840;2023-11-18T06:28:48;101909.88;;;5.21;100.00
6020;BME280;3038;51.122;6.840;2023-11-18T06:31:16;101922.09;;;5.22;100.00
6020;BME280;3038;51.122;6.840;2023-11-18T06:33:43;101913.28;;;5.23;100.00
6020;BME280;3038;51.122;6.840;2023-11-18T06:38:36;101909.50;;;5.27;100.00
6020;BME280;3038;51.122;6.840;2023-11-18T06:41:02;101902.47;;;5.27;100.00
6020;BME280;3038;51.122;6.840;2023-11-18T06:43:29;101905.09;;;5.27;100.00
6020;BME280;3038;51.122;6.840;2023-11-18T06:46:07;101903.22;;;5.29;100.00
6020;BME280;3038;51.122;6.840;2023-11-18T06:48:35;101906.88;;;5.27;100.00
6020;BME280;3038;51.122;6.840;2023-11-18T06:51:00;101927.00;;;5.28;100.00
6020;BME280;3038;51.122;6.840;2023-11-18T06:53:27;101941.09;;;5.27;100.00
6020;BME280;3038;51.122;6.840;2023-11-18T06:55:52;101945.44;;;5.28;100.00
6020;BME280;3038;51.122;6.840;2023-11-18T06:58:18;101941.88;;;5.29;100.00
6020;BME280;3038;51.122;6.840;2023-11-18T07:00:43;101934.63;;;5.32;100.00
6020;BME280;3038;51.122;6.840;2023-11-18T07:03:08;101928.50;;;5.32;100.00
6020;BME280;3038;51.122;6.840;2023-11-18T07:05:34;101924.81;;;5.34;100.00
6020;BME280;3038;51.122;6.840;2023-11-18T07:07:59;101922.84;;;5.38;100.00
6020;BME280;3038;51.122;6.840;2023-11-18T07:10:24;101933.94;;;5.43;100.00
6020;BME280;3038;51.122;6.840;2023-11-18T07:12:50;101950.31;;;5.48;100.00
6020;BME280;3038;51.122;6.840;2023-11-18T07:15:16;101951.25;;;5.47;100.00
6020;BME280;3038;51.122;6.840;2023-11-18T07:17:42;101958.75;;;5.53;100.00
6020;BME280;3038;51.122;6.840;2023-11-18T07:20:10;101957.53;;;5.59;100.00
6020;BME280;3038;51.122;6.840;2023-11-18T07:22:39;101962.69;;;5.60;100.00
6020;BME280;3038;51.122;6.840;2023-11-18T07:25:05;101954.59;;;5.63;100.00
6020;BME280;3038;51.122;6.840;2023-11-18T07:27:34;101943.22;;;5.63;100.00
6020;BME280;3038;51.122;6.840;2023-11-18T07:30:00;101933.34;;;5.66;100.00
6020;BME280;3038;51.122;6.840;2023-11-18T07:32:25;101928.06;;;5.66;100.00
6020;BME280;3038;51.122;6.840;2023-11-18T07:34:53;101930.69;;;5.66;100.00
6020;BME280;3038;51.122;6.840;2023-11-18T07:37:21;101927.00;;;5.69;100.00
6020;BME280;3038;51.122;6.840;2023-11-18T07:39:46;101921.56;;;5.72;100.00
6020;BME280;3038;51.122;6.840;2023-11-18T07:42:14;101915.44;;;5.72;100.00
6020;BME280;3038;51.122;6.840;2023-11-18T07:44:40;101909.75;;;5.78;100.00
6020;BME280;3038;51.122;6.840;2023-11-18T07:47:06;101914.63;;;5.84;100.00
6020;BME280;3038;51.122;6.840;2023-11-18T07:49:37;101904.00;;;5.85;100.00
6020;BME280;3038;51.122;6.840;2023-11-18T07:52:03;101906.41;;;5.88;100.00
6020;BME280;3038;51.122;6.840;2023-11-18T07:54:28;101902.00;;;5.89;100.00
6020;BME280;3038;51.122;6.840;2023-11-18T07:56:54;101916.69;;;5.93;100.00
6020;BME280;3038;51.122;6.840;2023-11-18T07:59:20;101899.75;;;5.97;100.00
6020;BME280;3038;51.122;6.840;2023-11-18T08:01:45;101907.66;;;5.97;100.00
6020;BME280;3038;51.122;6.840;2023-11-18T08:04:12;101905.66;;;6.01;100.00
6020;BME280;3038;51.122;6.840;2023-11-18T08:06:41;101909.78;;;6.05;100.00
6020;BME280;3038;51.122;6.840;2023-11-18T08:09:10;101911.38;;;6.07;100.00
6020;BME280;3038;51.122;6.840;2023-11-18T08:11:39;101914.34;;;6.15;100.00
6020;BME280;3038;51.122;6.840;2023-11-18T08:14:07;101911.50;;;6.18;100.00
6020;BME280;3038;51.122;6.840;2023-11-18T08:16:33;101910.56;;;6.20;100.00
6020;BME280;3038;51.122;6.840;2023-11-18T08:18:58;101903.38;;;6.22;100.00
6020;BME280;3038;51.122;6.840;2023-11-18T08:21:24;101902.97;;;6.28;100.00
6020;BME280;3038;51.122;6.840;2023-11-18T08:23:49;101906.13;;;6.33;100.00
6020;BME280;3038;51.122;6.840;2023-11-18T08:26:15;101917.34;;;6.36;100.00
6020;BME280;3038;51.122;6.840;2023-11-18T08:28:40;101912.91;;;6.37;100.00
6020;BME280;3038;51.122;6.840;2023-11-18T08:31:08;101917.88;;;6.41;100.00
6020;BME280;3038;51.122;6.840;2023-11-18T08:33:36;101912.94;;;6.50;100.00
6020;BME280;3038;51.122;6.840;2023-11-18T08:36:02;101902.25;;;6.51;100.00
6020;BME280;3038;51.122;6.840;2023-11-18T08:38:27;101909.97;;;6.54;100.00
6020;BME280;3038;51.122;6.840;2023-11-18T08:40:53;101919.91;;;6.63;100.00
6020;BME280;3038;51.122;6.840;2023-11-18T08:43:22;101920.97;;;6.74;100.00
6020;BME280;3038;51.122;6.840;2023-11-18T08:45:48;101913.78;;;6.76;100.00
6020;BME280;3038;51.122;6.840;2023-11-18T08:48:15;101906.81;;;6.75;100.00
6020;BME280;3038;51.122;6.840;2023-11-18T08:50:43;101906.38;;;6.81;100.00
6020;BME280;3038;51.122;6.840;2023-11-18T08:53:10;101906.19;;;6.84;100.00
6020;BME280;3038;51.122;6.840;2023-11-18T08:55:37;101915.47;;;6.89;100.00
6020;BME280;3038;51.122;6.840;2023-11-18T08:58:10;101919.78;;;6.90;100.00
6020;BME280;3038;51.122;6.840;2023-11-18T09:00:42;101921.38;;;6.93;100.00
6020;BME280;3038;51.122;6.840;2023-11-18T09:03:14;101918.31;;;6.99;100.00
6020;BME280;3038;51.122;6.840;2023-11-18T09:05:46;101918.63;;;7.07;100.00
6020;BME280;3038;51.122;6.840;2023-11-18T09:08:29;101909.75;;;7.08;100.00
6020;BME280;3038;51.122;6.840;2023-11-18T09:10:58;101899.38;;;7.05;100.00
6020;BME280;3038;51.122;6.840;2023-11-18T09:13:25;101897.50;;;7.07;100.00
6020;BME280;3038;51.122;6.840;2023-11-18T09:15:58;101888.94;;;7.04;100.00
6020;BME280;3038;51.122;6.840;2023-11-18T09:18:34;101890.75;;;7.03;100.00
6020;BME280;3038;51.122;6.840;2023-11-18T09:21:00;101881.88;;;7.04;100.00
6020;BME280;3038;51.122;6.840;2023-11-18T09:23:27;101873.94;;;7.04;100.00
6020;BME280;3038;51.122;6.840;2023-11-18T09:25:53;101876.59;;;7.04;100.00
6020;BME280;3038;51.122;6.840;2023-11-18T09:28:19;101874.91;;;7.03;100.00
6020;BME280;3038;51.122;6.840;2023-11-18T09:30:46;101879.03;;;7.07;100.00
6020;BME280;3038;51.122;6.840;2023-11-18T09:33:24;101875.94;;;7.13;100.00
6020;BME280;3038;51.122;6.840;2023-11-18T09:35:59;101859.66;;;7.19;100.00
6020;BME280;3038;51.122;6.840;2023-11-18T09:38:29;101858.34;;;7.25;100.00
6020;BME280;3038;51.122;6.840;2023-11-18T09:40:58;101864.06;;;7.32;100.00
6020;BME280;3038;51.122;6.840;2023-11-18T09:43:28;101874.19;;;7.38;100.00
6020;BME280;3038;51.122;6.840;2023-11-18T09:46:04;101861.47;;;7.43;100.00
6020;BME280;3038;51.122;6.840;2023-11-18T09:48:48;101857.53;;;7.48;100.00
6020;BME280;3038;51.122;6.840;2023-11-18T09:51:21;101857.22;;;7.53;100.00
6020;BME280;3038;51.122;6.840;2023-11-18T09:53:50;101851.50;;;7.59;100.00
6020;BME280;3038;51.122;6.840;2023-11-18T09:56:37;101847.56;;;7.65;100.00
6020;BME280;3038;51.122;6.840;2023-11-18T09:59:12;101841.94;;;7.69;100.00
6020;BME280;3038;51.122;6.840;2023-11-18T10:01:42;101848.28;;;7.67;100.00
6020;BME280;3038;51.122;6.840;2023-11-18T10:04:13;101843.31;;;7.62;100.00
6020;BME280;3038;51.122;6.840;2023-11-18T10:06:43;101841.50;;;7.63;100.00
6020;BME280;3038;51.122;6.840;2023-11-18T10:09:11;101841.63;;;7.61;100.00
6020;BME280;3038;51.122;6.840;2023-11-18T10:11:48;101845.13;;;7.62;100.00
6020;BME280;3038;51.122;6.840;2023-11-18T10:14:16;101839.63;;;7.65;100.00
6020;BME280;3038;51.122;6.840;2023-11-18T10:16:43;101834.94;;;7.68;100.00
6020;BME280;3038;51.122;6.840;2023-11-18T10:19:12;101818.84;;;7.71;100.00
6020;BME280;3038;51.122;6.840;2023-11-18T10:21:38;101803.72;;;7.73;100.00
6020;BME280;3038;51.122;6.840;2023-11-18T10:24:07;101794.25;;;7.82;100.00
6020;BME280;3038;51.122;6.840;2023-11-18T10:26:57;101795.72;;;7.86;100.00
6020;BME280;3038;51.122;6.840;2023-11-18T10:29:24;101789.59;;;7.86;100.00
6020;BME280;3038;51.122;6.840;2023-11-18T10:32:07;101772.88;;;7.85;100.00
6020;BME280;3038;51.122;6.840;2023-11-18T10:34:42;101771.78;;;7.88;100.00
6020;BME280;3038;51.122;6.840;2023-11-18T10:37:09;101772.75;;;7.87;100.00
6020;BME280;3038;51.122;6.840;2023-11-18T10:39:36;101763.13;;;7.86;100.00
6020;BME280;3038;51.122;6.840;2023-11-18T10:42:02;101756.88;;;7.87;100.00
6020;BME280;3038;51.122;6.840;2023-11-18T10:44:28;101757.63;;;7.89;100.00
6020;BME280;3038;51.122;6.840;2023-11-18T10:46:54;101747.06;;;7.89;100.00
6020;BME280;3038;51.122;6.840;2023-11-18T10:49:24;101740.31;;;7.85;100.00
6020;BME280;3038;51.122;6.840;2023-11-18T10:51:52;101736.69;;;7.86;100.00
6020;BME280;3038;51.122;6.840;2023-11-18T10:54:18;101731.63;;;7.83;100.00
6020;BME280;3038;51.122;6.840;2023-11-18T10:59:13;101712.19;;;7.84;100.00
6020;BME280;3038;51.122;6.840;2023-11-18T11:01:42;101734.19;;;7.84;100.00
6020;BME280;3038;51.122;6.840;2023-11-18T11:04:09;101728.41;;;7.90;100.00
6020;BME280;3038;51.122;6.840;2023-11-18T11:06:37;101725.44;;;7.95;100.00
6020;BME280;3038;51.122;6.840;2023-11-18T11:09:07;101730.50;;;7.98;100.00
6020;BME280;3038;51.122;6.840;2023-11-18T11:11:49;101728.81;;;8.08;100.00
6020;BME280;3038;51.122;6.840;2023-11-18T11:14:16;101725.91;;;8.11;100.00
6020;BME280;3038;51.122;6.840;2023-11-18T11:16:55;101714.41;;;8.12;100.00
6020;BME280;3038;51.122;6.840;2023-11-18T11:19:38;101711.50;;;8.15;100.00
6020;BME280;3038;51.122;6.840;2023-11-18T11:22:11;101710.03;;;8.11;100.00
6020;BME280;3038;51.122;6.840;2023-11-18T11:25:00;101701.66;;;8.17;100.00
6020;BME280;3038;51.122;6.840;2023-11-18T11:27:33;101707.88;;;8.16;100.00
6020;BME280;3038;51.122;6.840;2023-11-18T11:30:21;101706.06;;;8.17;100.00
6020;BME280;3038;51.122;6.840;2023-11-18T11:32:52;101705.72;;;8.10;100.00
6020;BME280;3038;51.122;6.840;2023-11-18T11:35:23;101707.75;;;8.07;100.00
6020;BME280;3038;51.122;6.840;2023-11-18T11:37:49;101705.00;;;8.08;100.00
6020;BME280;3038;51.122;6.840;2023-11-18T11:40:15;101707.41;;;8.11;100.00
6020;BME280;3038;51.122;6.840;2023-11-18T11:42:49;101688.66;;;8.14;100.00
6020;BME280;3038;51.122;6.840;2023-11-18T11:45:23;101685.66;;;8.19;100.00
6020;BME280;3038;51.122;6.840;2023-11-18T11:47:54;101680.72;;;8.25;100.00
6020;BME280;3038;51.122;6.840;2023-11-18T11:51:05;101673.50;;;8.28;100.00
6020;BME280;3038;51.122;6.840;2023-11-18T11:53:31;101674.09;;;8.31;100.00
6020;BME280;3038;51.122;6.840;2023-11-18T11:56:01;101680.47;;;8.29;100.00
6020;BME280;3038;51.122;6.840;2023-11-18T11:58:41;101676.38;;;8.36;100.00
6020;BME280;3038;51.122;6.840;2023-11-18T12:01:16;101672.81;;;8.37;100.00
6020;BME280;3038;51.122;6.840;2023-11-18T12:03:43;101673.53;;;8.39;100.00
6020;BME280;3038;51.122;6.840;2023-11-18T12:06:18;101677.22;;;8.36;100.00
6020;BME280;3038;51.122;6.840;2023-11-18T12:08:51;101666.88;;;8.33;100.00
6020;BME280;3038;51.122;6.840;2023-11-18T12:11:20;101665.78;;;8.36;100.00
6020;BME280;3038;51.122;6.840;2023-11-18T12:14:04;101667.72;;;8.34;100.00
6020;BME280;3038;51.122;6.840;2023-11-18T12:17:07;101664.47;;;8.30;100.00
6020;BME280;3038;51.122;6.840;2023-11-18T12:19:48;101651.97;;;8.32;100.00
6020;BME280;3038;51.122;6.840;2023-11-18T12:22:18;101641.41;;;8.32;100.00
6020;BME280;3038;51.122;6.840;2023-11-18T12:25:28;101625.03;;;8.27;100.00
6020;BME280;3038;51.122;6.840;2023-11-18T12:35:23;101582.09;;;8.35;100.00
6020;BME280;3038;51.122;6.840;2023-11-18T12:40:55;101573.94;;;8.38;100.00
6020;BME280;3038;51.122;6.840;2023-11-18T12:43:47;101573.94;;;8.38;100.00
6020;BME280;3038;51.122;6.840;2023-11-18T12:46:47;101574.03;;;8.36;100.00
6020;BME280;3038;51.122;6.840;2023-11-18T12:49:15;101565.03;;;8.39;100.00
6020;BME280;3038;51.122;6.840;2023-11-18T12:51:42;101552.78;;;8.38;100.00
6020;BME280;3038;51.122;6.840;2023-11-18T12:54:14;101535.22;;;8.37;100.00
6020;BME280;3038;51.122;6.840;2023-11-18T12:56:41;101516.91;;;8.34;100.00
6020;BME280;3038;51.122;6.840;2023-11-18T12:59:14;101502.00;;;8.33;100.00
6020;BME280;3038;51.122;6.840;2023-11-18T13:01:43;101492.03;;;8.36;100.00
6020;BME280;3038;51.122;6.840;2023-11-18T13:04:12;101494.56;;;8.38;100.00
6020;BME280;3038;51.122;6.840;2023-11-18T13:06:39;101503.78;;;8.43;100.00
6020;BME280;3038;51.122;6.840;2023-11-18T13:09:07;101507.50;;;8.41;100.00
6020;BME280;3038;51.122;6.840;2023-11-18T13:11:35;101515.59;;;8.39;100.00
6020;BME280;3038;51.122;6.840;2023-11-18T13:14:00;101511.41;;;8.37;100.00
6020;BME280;3038;51.122;6.840;2023-11-18T13:16:25;101493.09;;;8.34;100.00
6020;BME280;3038;51.122;6.840;2023-11-18T13:18:51;101478.19;;;8.33;100.00
6020;BME280;3038;51.122;6.840;2023-11-18T13:21:19;101451.84;;;8.31;100.00
6020;BME280;3038;51.122;6.840;2023-11-18T13:23:47;101430.69;;;8.31;100.00
6020;BME280;3038;51.122;6.840;2023-11-18T13:26:14;101414.69;;;8.33;100.00
6020;BME280;3038;51.122;6.840;2023-11-18T13:28:42;101406.28;;;8.39;100.00
6020;BME280;3038;51.122;6.840;2023-11-18T13:31:09;101400.00;;;8.40;100.00
6020;BME280;3038;51.122;6.840;2023-11-18T13:33:39;101385.31;;;8.47;100.00
6020;BME280;3038;51.122;6.840;2023-11-18T13:36:05;101386.00;;;8.49;100.00
6020;BME280;3038;51.122;6.840;2023-11-18T13:38:32;101392.50;;;8.45;100.00